Time;durP1;ratioP1;P1;durP2;ratioP2;P2;SDS_P1;SDS_P2;PMS_P1;PMS_P2;Temp;Humidity;BMP_temperature;BMP_pressure;BME280_temperature;BME280_humidity;BME280_pressure;Samples;Min_cycle;Max_cycle;Signal;HPM_P1;HPM_P2
2022/08/06 03:02:00;;;;;;;1.52;0.85;;;30.80;37.50;;;;;;5172960;23;45607;-79
2022/08/06 03:04:27;;;;;;;2.53;1.13;;;30.80;37.50;;;;;;4882850;29;44978;-79
2022/08/06 03:06:53;;;;;;;2.15;0.60;;;30.80;37.50;;;;;;4901905;29;45513;-81
2022/08/06 03:09:19;;;;;;;1.27;0.82;;;30.70;37.40;;;;;;4902454;28;45536;-80
2022/08/06 03:11:44;;;;;;;1.67;1.13;;;30.80;37.50;;;;;;4905139;28;45399;-79
2022/08/06 03:14:10;;;;;;;2.28;1.00;;;30.80;37.50;;;;;;4901697;28;45010;-80
2022/08/06 03:16:36;;;;;;;1.45;0.80;;;30.80;37.50;;;;;;4883147;29;47730;-78
2022/08/06 03:19:02;;;;;;;1.60;1.10;;;30.80;37.50;;;;;;4886210;29;45560;-80
2022/08/06 03:21:28;;;;;;;1.38;0.90;;;30.70;37.40;;;;;;4900837;28;44834;-80
2022/08/06 03:23:53;;;;;;;1.67;1.10;;;30.70;37.40;;;;;;4902331;29;44761;-80
2022/08/06 03:26:19;;;;;;;1.88;1.20;;;30.70;37.40;;;;;;4884451;29;45181;-81
2022/08/06 03:28:45;;;;;;;2.08;1.10;;;30.70;37.30;;;;;;4859735;28;45241;-79
2022/08/06 03:31:10;;;;;;;1.63;1.00;;;30.70;37.30;;;;;;4901300;28;45280;-79
2022/08/06 03:33:36;;;;;;;1.40;0.82;;;30.70;37.30;;;;;;4884049;29;44824;-80
2022/08/06 03:36:02;;;;;;;1.52;1.00;;;30.70;37.30;;;;;;4885875;29;45399;-80
2022/08/06 03:38:38;;;;;;;1.58;1.00;;;30.70;37.30;;;;;;4871357;29;44920;-80
2022/08/06 03:41:03;;;;;;;2.55;1.20;;;30.70;37.30;;;;;;4899538;28;44683;-79
2022/08/06 03:43:29;;;;;;;1.95;0.93;;;30.70;37.30;;;;;;4887385;29;45602;-80
2022/08/06 03:45:58;;;;;;;2.40;0.80;;;30.70;37.30;;;;;;4874727;29;45527;-79
2022/08/06 03:48:24;;;;;;;2.33;0.80;;;30.70;37.30;;;;;;4864252;29;44732;-81
2022/08/06 03:50:50;;;;;;;0.85;0.60;;;30.70;37.30;;;;;;4899019;28;45259;-80
2022/08/06 03:53:22;;;;;;;1.27;0.90;;;30.70;37.40;;;;;;4868859;29;45149;-80
2022/08/06 03:55:54;;;;;;;1.23;0.80;;;30.70;37.40;;;;;;4866485;29;47209;-79
2022/08/06 03:58:20;;;;;;;0.80;0.70;;;30.70;37.40;;;;;;4882995;29;45245;-80
2022/08/06 04:00:51;;;;;;;1.40;0.68;;;30.70;37.40;;;;;;4897032;28;45318;-80
2022/08/06 04:03:17;;;;;;;1.33;0.85;;;30.70;37.40;;;;;;4869526;29;45306;-80
2022/08/06 04:05:43;;;;;;;1.35;0.98;;;30.70;37.40;;;;;;4857835;29;47215;-80
2022/08/06 04:08:09;;;;;;;1.00;0.73;;;30.70;37.40;;;;;;4884049;28;45128;-79
2022/08/06 04:10:45;;;;;;;3.15;1.30;;;30.70;37.40;;;;;;4855860;29;45231;-80
2022/08/06 04:13:13;;;;;;;2.50;1.30;;;30.70;37.40;;;;;;4900746;28;45393;-79
2022/08/06 04:15:39;;;;;;;1.50;1.02;;;30.70;37.40;;;;;;4898990;29;45339;-79
2022/08/06 04:18:07;;;;;;;1.52;1.00;;;30.70;37.40;;;;;;4903512;28;44748;-80
2022/08/06 04:20:32;;;;;;;3.00;1.40;;;30.60;37.40;;;;;;4870218;28;44728;-81
2022/08/06 04:22:58;;;;;;;3.28;0.80;;;30.60;37.40;;;;;;4879354;29;45318;-80
2022/08/06 04:25:23;;;;;;;2.13;1.10;;;30.60;37.40;;;;;;4882672;29;47149;-81
2022/08/06 04:27:49;;;;;;;2.58;1.13;;;30.60;37.40;;;;;;4850584;29;45024;-81
2022/08/06 04:30:15;;;;;;;2.15;0.90;;;30.60;37.40;;;;;;4892654;29;44862;-79
2022/08/06 04:32:40;;;;;;;1.85;0.98;;;30.60;37.50;;;;;;4890619;28;45820;-81
2022/08/06 04:35:06;;;;;;;0.95;0.80;;;30.60;37.50;;;;;;4881935;28;47095;-80
2022/08/06 04:37:33;;;;;;;2.55;0.80;;;30.60;37.50;;;;;;4864628;29;45327;-81
2022/08/06 04:39:58;;;;;;;1.27;1.05;;;30.60;37.50;;;;;;4883960;29;45239;-81
2022/08/06 04:42:24;;;;;;;1.27;1.00;;;30.60;37.50;;;;;;4868791;29;45665;-81
2022/08/06 04:44:50;;;;;;;2.30;1.30;;;30.60;38.10;;;;;;4883581;28;48327;-80
2022/08/06 04:47:15;;;;;;;2.15;1.55;;;30.60;37.50;;;;;;4882866;29;44649;-81
2022/08/06 04:49:41;;;;;;;1.83;1.10;;;30.60;37.50;;;;;;4868946;29;44902;-81
2022/08/06 04:52:06;;;;;;;2.60;1.15;;;30.50;37.50;;;;;;4852980;29;45088;-81
2022/08/06 04:54:32;;;;;;;2.92;1.40;;;30.50;37.50;;;;;;4869599;29;48239;-81
2022/08/06 04:56:57;;;;;;;2.55;1.25;;;30.50;37.50;;;;;;4870356;29;45492;-81
2022/08/06 04:59:23;;;;;;;2.47;1.42;;;30.50;37.50;;;;;;4898662;28;45149;-80
2022/08/06 05:01:48;;;;;;;4.47;1.55;;;30.50;37.50;;;;;;4868199;29;45548;-81
2022/08/06 05:04:14;;;;;;;3.55;1.23;;;30.50;37.50;;;;;;4872457;29;46973;-81
2022/08/06 05:07:17;;;;;;;2.05;1.05;;;30.50;37.50;;;;;;4887946;28;45185;-81
2022/08/06 05:09:43;;;;;;;5.10;0.93;;;30.50;37.50;;;;;;4895900;28;45008;-81
2022/08/06 05:12:28;;;;;;;1.85;1.02;;;30.50;37.50;;;;;;4916910;28;44850;-81
2022/08/06 05:15:24;;;;;;;1.50;0.95;;;30.50;37.50;;;;;;4883919;28;48090;-81
2022/08/06 05:17:56;;;;;;;2.05;0.90;;;30.50;37.50;;;;;;4902140;29;45068;-81
2022/08/06 05:20:21;;;;;;;2.20;0.85;;;30.50;37.50;;;;;;4886700;29;44705;-81
2022/08/06 05:22:49;;;;;;;1.15;0.73;;;30.50;37.50;;;;;;4869376;29;45724;-81
2022/08/06 05:25:15;;;;;;;2.13;0.90;;;30.50;37.40;;;;;;4872145;29;47783;-82
2022/08/06 05:27:40;;;;;;;3.10;0.88;;;31.00;36.70;;;;;;4886194;28;45017;-81
2022/08/06 05:30:07;;;;;;;1.30;0.90;;;31.70;35.50;;;;;;4857992;28;45484;-81
2022/08/06 05:32:46;;;;;;;1.15;0.70;;;31.80;35.00;;;;;;4874024;29;45274;-81
2022/08/06 05:35:12;;;;;;;1.83;0.90;;;31.50;35.10;;;;;;4888910;29;47411;-82
2022/08/06 05:37:38;;;;;;;1.45;0.73;;;31.30;35.60;;;;;;4905108;29;44720;-82
2022/08/06 05:40:05;;;;;;;1.83;1.05;;;31.10;35.80;;;;;;4891010;29;45198;-82
2022/08/06 05:42:30;;;;;;;1.60;0.85;;;30.90;36.00;;;;;;4909050;28;45204;-82
2022/08/06 05:44:56;;;;;;;0.90;0.60;;;30.80;36.20;;;;;;4887468;29;46987;-82
2022/08/06 05:47:24;;;;;;;1.50;0.52;;;30.70;36.30;;;;;;4893231;29;45235;-81
2022/08/06 05:49:56;;;;;;;1.73;0.70;;;30.60;36.30;;;;;;4889109;29;45271;-81
2022/08/06 05:52:28;;;;;;;1.33;0.90;;;30.60;36.20;;;;;;4872435;29;45116;-81
2022/08/06 05:55:13;;;;;;;1.07;0.67;;;30.50;36.20;;;;;;4870137;28;45506;-82
2022/08/06 05:57:46;;;;;;;1.10;0.68;;;30.50;35.90;;;;;;4907825;29;45174;-81
2022/08/06 06:00:14;;;;;;;1.15;1.05;;;30.50;36.10;;;;;;4907337;29;45227;-81
2022/08/06 06:02:45;;;;;;;1.70;0.82;;;30.50;36.20;;;;;;4876978;29;45221;-82
2022/08/06 06:05:11;;;;;;;1.58;1.35;;;30.50;36.10;;;;;;4876658;29;48356;-81
2022/08/06 06:07:37;;;;;;;2.10;1.15;;;30.50;36.10;;;;;;4907247;28;44737;-81
2022/08/06 06:10:03;;;;;;;2.10;1.35;;;30.50;36.00;;;;;;4890025;28;45222;-81
2022/08/06 06:12:30;;;;;;;3.42;0.93;;;30.50;35.90;;;;;;4909413;28;45554;-81
2022/08/06 06:14:55;;;;;;;1.77;1.20;;;30.50;35.80;;;;;;4905282;29;45347;-81
2022/08/06 06:17:38;;;;;;;1.42;1.05;;;30.50;35.80;;;;;;4872884;29;45237;-81
2022/08/06 06:20:04;;;;;;;1.67;1.10;;;30.50;35.70;;;;;;4890479;29;45204;-81
2022/08/06 06:22:49;;;;;;;1.15;0.93;;;30.50;35.70;;;;;;4911887;28;44670;-81
2022/08/06 06:25:40;;;;;;;1.45;0.90;;;30.50;35.50;;;;;;4883595;29;47061;-80
2022/08/06 06:28:28;;;;;;;2.08;1.15;;;30.50;35.30;;;;;;4895735;29;44734;-81
2022/08/06 06:30:53;;;;;;;1.02;0.70;;;30.50;35.20;;;;;;4888707;29;45333;-81
2022/08/06 06:33:31;;;;;;;1.55;1.10;;;30.60;35.20;;;;;;4908719;29;45235;-81
2022/08/06 06:35:58;;;;;;;0.63;0.60;;;30.70;35.00;;;;;;4914299;28;45601;-82
2022/08/06 06:38:38;;;;;;;1.30;0.70;;;30.70;35.10;;;;;;4893312;29;45340;-82
2022/08/06 06:41:13;;;;;;;1.42;0.85;;;30.70;34.80;;;;;;4905488;28;45328;-82
2022/08/06 06:44:17;;;;;;;1.88;0.90;;;30.70;35.10;;;;;;4889135;29;45035;-81
2022/08/06 06:46:54;;;;;;;1.35;0.60;;;30.70;34.90;;;;;;4907273;29;45686;-82
2022/08/06 06:49:24;;;;;;;1.08;0.50;;;30.70;35.00;;;;;;4888367;29;45081;-82
2022/08/06 06:51:56;;;;;;;1.00;0.60;;;30.70;35.00;;;;;;4883595;29;45193;-82
2022/08/06 06:54:27;;;;;;;1.17;0.63;;;30.80;35.00;;;;;;4878107;29;45324;-83
2022/08/06 06:56:54;;;;;;;1.30;0.73;;;30.80;35.00;;;;;;4895980;29;45387;-83
2022/08/06 06:59:35;;;;;;;1.17;0.60;;;30.80;35.00;;;;;;4878726;29;45810;-82
2022/08/06 07:02:02;;;;;;;1.65;0.80;;;30.90;35.60;;;;;;4862771;29;45374;-82
2022/08/06 07:04:27;;;;;;;2.25;0.70;;;30.90;35.00;;;;;;4884556;29;45212;-81
2022/08/06 07:06:54;;;;;;;0.88;0.70;;;30.80;35.00;;;;;;4890789;28;47163;-81
2022/08/06 07:09:24;;;;;;;0.93;0.60;;;30.90;35.00;;;;;;4877262;29;44947;-82
2022/08/06 07:11:50;;;;;;;0.80;0.80;;;30.90;34.90;;;;;;4906784;28;45303;-81
2022/08/06 07:14:16;;;;;;;1.00;0.65;;;30.90;35.00;;;;;;4892379;29;45099;-82
2022/08/06 07:16:42;;;;;;;1.08;0.60;;;30.90;34.80;;;;;;4872760;29;48185;-82
2022/08/06 07:19:09;;;;;;;1.00;0.70;;;30.90;34.80;;;;;;4887314;29;45566;-81
2022/08/06 07:21:34;;;;;;;1.45;0.80;;;30.90;34.80;;;;;;4872014;29;45157;-81
2022/08/06 07:24:00;;;;;;;0.65;0.40;;;30.90;34.80;;;;;;4899725;28;45766;-80
2022/08/06 07:26:26;;;;;;;0.45;0.40;;;30.90;34.80;;;;;;4871367;29;46252;-80
2022/08/06 07:28:51;;;;;;;1.88;0.65;;;30.90;34.70;;;;;;4902885;28;45826;-79
2022/08/06 07:31:17;;;;;;;0.43;0.43;;;30.90;34.70;;;;;;4887381;28;44981;-81
2022/08/06 07:33:44;;;;;;;1.42;0.70;;;30.90;34.70;;;;;;4886063;29;45089;-81
2022/08/06 07:36:10;;;;;;;0.77;0.43;;;30.90;34.70;;;;;;4871343;29;45701;-81
2022/08/06 07:38:39;;;;;;;0.82;0.70;;;30.90;34.70;;;;;;4872729;29;44727;-81
2022/08/06 07:41:05;;;;;;;0.60;0.50;;;30.90;34.70;;;;;;4902795;28;45482;-80
2022/08/06 07:43:54;;;;;;;0.52;0.45;;;30.90;34.60;;;;;;4887363;29;45570;-82
2022/08/06 07:46:32;;;;;;;0.52;0.50;;;31.00;34.50;;;;;;4870796;29;46819;-81
2022/08/06 07:49:01;;;;;;;0.98;0.40;;;31.00;34.30;;;;;;4886796;28;45319;-81
2022/08/06 07:51:45;;;;;;;0.32;0.20;;;31.00;34.50;;;;;;4884166;29;44829;-81
2022/08/06 07:54:11;;;;;;;0.63;0.50;;;31.00;34.30;;;;;;4873848;28;45389;-80
2022/08/06 07:56:38;;;;;;;0.55;0.40;;;31.00;34.60;;;;;;4870813;29;45357;-81
2022/08/06 07:59:03;;;;;;;1.58;0.40;;;31.00;34.60;;;;;;4872258;28;45280;-81
2022/08/06 08:01:29;;;;;;;0.82;0.50;;;31.00;34.50;;;;;;4873698;29;45215;-81
2022/08/06 08:06:47;;;;;;;0.70;0.40;;;31.10;34.30;;;;;;4879866;29;47300;-81
2022/08/06 08:09:15;;;;;;;0.80;0.50;;;31.10;34.30;;;;;;4887635;29;45182;-81
2022/08/06 08:11:42;;;;;;;1.05;0.52;;;31.10;34.10;;;;;;4888229;29;44704;-80
2022/08/06 08:14:09;;;;;;;0.65;0.40;;;31.10;34.20;;;;;;4893161;29;45138;-81
2022/08/06 08:16:35;;;;;;;0.50;0.40;;;31.10;34.10;;;;;;4873903;29;45246;-80
2022/08/06 08:19:01;;;;;;;0.35;0.30;;;31.10;34.00;;;;;;4888456;28;45244;-81
2022/08/06 08:21:27;;;;;;;1.02;0.50;;;31.10;33.90;;;;;;4901495;28;45383;-80
2022/08/06 08:23:53;;;;;;;0.85;0.52;;;31.10;33.70;;;;;;4858142;28;45265;-81
2022/08/06 08:26:18;;;;;;;2.85;0.43;;;31.10;33.70;;;;;;4912924;28;45359;-81
2022/08/06 08:28:44;;;;;;;2.70;0.40;;;31.10;33.80;;;;;;4877715;29;45296;-82
2022/08/06 08:31:13;;;;;;;0.63;0.50;;;31.10;33.70;;;;;;4906246;29;45320;-81
2022/08/06 08:33:39;;;;;;;0.57;0.40;;;31.10;33.60;;;;;;4891116;23;45370;-63
2022/08/06 08:36:05;;;;;;;0.45;0.40;;;31.10;33.70;;;;;;4900424;28;46953;-63
2022/08/06 08:38:31;;;;;;;0.50;0.50;;;31.10;33.60;;;;;;4898794;28;45217;-64
2022/08/06 08:41:00;;;;;;;1.17;0.20;;;31.10;33.70;;;;;;4894218;28;45586;-63
2022/08/06 08:43:33;;;;;;;1.17;0.50;;;31.10;33.70;;;;;;4866399;29;45150;-63
2022/08/06 08:45:59;;;;;;;0.68;0.30;;;31.10;33.50;;;;;;4880345;29;45994;-63
2022/08/06 08:48:28;;;;;;;0.85;0.32;;;31.10;33.50;;;;;;4878814;29;45109;-63
2022/08/06 08:50:54;;;;;;;0.30;0.30;;;31.10;33.50;;;;;;4898035;28;45250;-63
2022/08/06 08:53:28;;;;;;;0.85;0.30;;;31.10;33.30;;;;;;4880448;29;45580;-63
2022/08/06 08:55:54;;;;;;;0.95;0.43;;;31.10;33.10;;;;;;4881760;29;47210;-63
2022/08/06 08:58:21;;;;;;;0.75;0.30;;;31.10;33.20;;;;;;4896151;28;44977;-63
2022/08/06 09:00:46;;;;;;;1.15;0.35;;;31.10;33.10;;;;;;4876336;29;45490;-63
2022/08/06 09:03:12;;;;;;;2.47;0.30;;;31.10;33.00;;;;;;4893804;28;45484;-63
2022/08/06 09:05:38;;;;;;;0.82;0.40;;;31.10;32.90;;;;;;4880706;29;45156;-63
2022/08/06 09:08:03;;;;;;;1.38;0.30;;;31.10;32.90;;;;;;4881448;29;45334;-64
2022/08/06 09:10:30;;;;;;;0.40;0.30;;;31.10;32.80;;;;;;4895258;28;45290;-63
2022/08/06 09:12:55;;;;;;;0.47;0.30;;;31.10;32.90;;;;;;4879154;28;45258;-63
2022/08/06 09:15:21;;;;;;;0.82;0.25;;;31.10;33.00;;;;;;4877075;29;45377;-63
2022/08/06 09:17:47;;;;;;;0.15;0.15;;;31.10;32.90;;;;;;4899065;28;45156;-63
2022/08/06 09:20:13;;;;;;;1.02;0.40;;;31.10;33.00;;;;;;4883196;29;45243;-65
2022/08/06 09:22:38;;;;;;;1.20;0.32;;;31.10;33.10;;;;;;4899342;28;45243;-63
2022/08/06 09:25:04;;;;;;;1.45;0.70;;;31.10;32.80;;;;;;4898655;28;45548;-62
2022/08/06 09:27:34;;;;;;;0.90;0.32;;;31.10;32.90;;;;;;4900535;28;45247;-63
2022/08/06 09:30:04;;;;;;;0.30;0.30;;;31.10;32.80;;;;;;4899073;28;45719;-63
2022/08/06 09:32:44;;;;;;;1.55;0.47;;;31.10;32.90;;;;;;4897212;28;45309;-64
2022/08/06 09:35:27;;;;;;;1.40;0.52;;;31.10;32.80;;;;;;4900105;28;45788;-63
2022/08/06 09:38:04;;;;;;;0.93;0.40;;;31.20;32.70;;;;;;4895835;28;45441;-63
2022/08/06 09:40:30;;;;;;;1.08;0.35;;;31.10;32.80;;;;;;4880959;28;45514;-63
2022/08/06 09:42:55;;;;;;;1.25;0.60;;;31.10;32.90;;;;;;4898357;28;45621;-63
2022/08/06 09:45:22;;;;;;;1.13;0.50;;;31.10;32.70;;;;;;4898976;28;45149;-63
2022/08/06 09:47:49;;;;;;;0.47;0.43;;;31.10;32.70;;;;;;4883293;28;45025;-63
2022/08/06 09:50:15;;;;;;;0.80;0.40;;;31.20;32.70;;;;;;4904228;28;45188;-63
2022/08/06 09:52:40;;;;;;;0.90;0.50;;;31.20;32.90;;;;;;4883571;28;45316;-64
2022/08/06 09:55:06;;;;;;;1.05;0.40;;;31.20;32.90;;;;;;4893208;28;46140;-63
2022/08/06 09:57:45;;;;;;;1.95;0.50;;;31.20;32.80;;;;;;4899088;28;45850;-63
2022/08/06 10:00:11;;;;;;;0.88;0.40;;;31.20;32.40;;;;;;4898947;28;44775;-63
2022/08/06 10:02:38;;;;;;;0.85;0.40;;;31.30;32.80;;;;;;4895355;28;44906;-63
2022/08/06 10:05:11;;;;;;;0.40;0.30;;;31.20;32.80;;;;;;4894724;28;45234;-64
2022/08/06 10:07:37;;;;;;;1.15;0.40;;;31.30;32.70;;;;;;4899787;28;45130;-64
2022/08/06 10:10:03;;;;;;;0.43;0.28;;;31.30;32.80;;;;;;4896592;28;46270;-64
2022/08/06 10:12:29;;;;;;;0.50;0.40;;;31.30;32.80;;;;;;4880484;28;44713;-63
2022/08/06 10:14:54;;;;;;;0.60;0.32;;;31.30;32.80;;;;;;4896321;28;45571;-64
2022/08/06 10:17:21;;;;;;;1.50;0.52;;;31.30;32.60;;;;;;4881015;29;45243;-63
2022/08/06 10:20:03;;;;;;;0.80;0.30;;;31.30;32.60;;;;;;4895546;28;45388;-62
2022/08/06 10:22:29;;;;;;;0.82;0.35;;;31.30;32.70;;;;;;4895328;28;45587;-62
2022/08/06 10:24:54;;;;;;;0.20;0.20;;;31.30;32.50;;;;;;4897493;28;45469;-63
2022/08/06 10:27:21;;;;;;;0.77;0.38;;;31.30;32.50;;;;;;4897585;28;45615;-63
2022/08/06 10:29:50;;;;;;;0.43;0.25;;;31.30;32.40;;;;;;4913913;28;44696;-63
2022/08/06 10:32:20;;;;;;;1.25;0.43;;;31.30;32.30;;;;;;4891366;28;45572;-62
2022/08/06 10:34:48;;;;;;;0.30;0.20;;;31.30;32.40;;;;;;4893106;28;46244;-63
2022/08/06 10:37:13;;;;;;;0.30;0.20;;;31.30;32.50;;;;;;4901381;29;44965;-63
2022/08/06 10:39:41;;;;;;;0.63;0.40;;;31.30;32.20;;;;;;4897252;28;45479;-63
2022/08/06 10:42:06;;;;;;;1.55;0.38;;;31.30;32.30;;;;;;4897280;28;45503;-62
2022/08/06 10:44:33;;;;;;;0.32;0.30;;;31.40;32.50;;;;;;4891309;28;47042;-63
2022/08/06 10:46:59;;;;;;;0.60;0.30;;;31.30;32.10;;;;;;4896454;28;45305;-64
2022/08/06 10:49:25;;;;;;;0.70;0.38;;;31.40;32.20;;;;;;4867015;28;45615;-63
2022/08/06 10:51:50;;;;;;;0.40;0.30;;;31.40;32.20;;;;;;4874556;28;45717;-63
2022/08/06 10:54:16;;;;;;;0.60;0.40;;;31.40;32.20;;;;;;4892340;28;45587;-64
2022/08/06 10:56:42;;;;;;;0.57;0.40;;;31.40;32.20;;;;;;4893502;28;45509;-63
2022/08/06 10:59:07;;;;;;;0.43;0.30;;;31.40;32.20;;;;;;4909470;28;45343;-63
2022/08/06 11:01:43;;;;;;;0.75;0.30;;;31.40;32.00;;;;;;4888489;28;45647;-63
2022/08/06 11:04:27;;;;;;;0.20;0.20;;;31.40;31.90;;;;;;4872297;29;47318;-63
2022/08/06 11:07:17;;;;;;;0.70;0.30;;;31.40;31.30;;;;;;4907261;28;45151;-63
2022/08/06 11:10:13;;;;;;;0.35;0.20;;;31.40;31.90;;;;;;4892141;28;44927;-63
2022/08/06 11:12:50;;;;;;;0.80;0.30;;;31.40;31.50;;;;;;4891922;28;45323;-63
2022/08/06 11:15:15;;;;;;;0.85;0.25;;;31.40;31.80;;;;;;4891739;28;45200;-64
2022/08/06 11:17:45;;;;;;;0.45;0.20;;;31.40;31.90;;;;;;4891920;28;45442;-63
2022/08/06 11:20:37;;;;;;;0.30;0.30;;;31.40;31.90;;;;;;4891032;28;45349;-63
2022/08/06 11:23:05;;;;;;;0.60;0.40;;;31.40;31.30;;;;;;4893286;28;45547;-63
2022/08/06 11:25:52;;;;;;;0.32;0.30;;;31.40;31.60;;;;;;4889109;28;46097;-63
2022/08/06 11:28:27;;;;;;;0.30;0.28;;;31.40;31.10;;;;;;4893728;28;45399;-63
2022/08/06 11:30:53;;;;;;;0.82;0.40;;;31.40;31.00;;;;;;4895732;28;44938;-63
2022/08/06 11:33:39;;;;;;;0.98;0.30;;;31.50;31.40;;;;;;4894688;28;44913;-63
2022/08/06 11:36:09;;;;;;;0.38;0.28;;;31.50;30.70;;;;;;4885394;28;45402;-63
2022/08/06 11:38:46;;;;;;;0.95;0.40;;;31.50;31.40;;;;;;4909438;28;45261;-63
2022/08/06 11:41:16;;;;;;;1.38;0.40;;;31.50;31.40;;;;;;4894113;28;45225;-62
2022/08/06 11:44:05;;;;;;;0.55;0.30;;;31.50;31.50;;;;;;4893303;28;45319;-62
2022/08/06 11:46:35;;;;;;;0.20;0.20;;;31.50;31.10;;;;;;4882742;28;48859;-62
2022/08/06 11:49:03;;;;;;;0.88;0.50;;;31.50;31.60;;;;;;4889131;28;45316;-63
2022/08/06 11:51:40;;;;;;;0.68;0.38;;;31.50;31.40;;;;;;4907721;28;45352;-62
2022/08/06 11:54:22;;;;;;;1.25;0.20;;;31.50;31.10;;;;;;4894963;28;45329;-63
2022/08/06 11:57:08;;;;;;;0.50;0.20;;;31.50;30.80;;;;;;4876158;28;45897;-62
2022/08/06 11:59:38;;;;;;;0.38;0.20;;;31.50;31.20;;;;;;4896582;28;45277;-64
2022/08/06 12:02:08;;;;;;;3.08;0.32;;;31.50;30.70;;;;;;4908985;28;45296;-62
2022/08/06 12:04:42;;;;;;;0.40;0.25;;;31.50;30.80;;;;;;4891282;28;45802;-62
2022/08/06 12:07:34;;;;;;;0.13;0.10;;;31.50;30.70;;;;;;4888780;28;46154;-63
2022/08/06 12:10:05;;;;;;;0.30;0.20;;;31.50;29.90;;;;;;4895651;28;44663;-63
2022/08/06 12:12:40;;;;;;;0.35;0.20;;;31.50;30.10;;;;;;4893321;28;45379;-63
2022/08/06 12:15:11;;;;;;;0.82;0.20;;;31.50;30.50;;;;;;4894170;28;45655;-63
2022/08/06 12:17:37;;;;;;;0.45;0.20;;;31.50;30.20;;;;;;4909808;28;47099;-63
2022/08/06 12:20:03;;;;;;;1.58;0.20;;;31.50;30.40;;;;;;4908834;28;45463;-63
2022/08/06 12:22:31;;;;;;;0.85;0.40;;;31.50;30.50;;;;;;4895561;28;46001;-62
2022/08/06 12:24:58;;;;;;;1.50;0.30;;;31.50;30.70;;;;;;4891003;28;45540;-62
2022/08/06 12:27:29;;;;;;;0.57;0.22;;;31.60;30.60;;;;;;4890949;28;46094;-61
2022/08/06 12:29:56;;;;;;;0.30;0.20;;;31.60;30.60;;;;;;4909093;28;45276;-62
2022/08/06 12:32:22;;;;;;;0.52;0.30;;;31.60;30.40;;;;;;4907234;28;45661;-62
2022/08/06 12:34:48;;;;;;;0.47;0.30;;;31.60;30.40;;;;;;4909044;28;45531;-63
2022/08/06 12:37:14;;;;;;;0.30;0.20;;;31.60;30.30;;;;;;4904927;28;45981;-63
2022/08/06 12:42:26;;;;;;;0.40;0.40;;;31.60;30.10;;;;;;4892519;28;44693;-62
2022/08/06 12:44:51;;;;;;;0.32;0.20;;;31.60;30.20;;;;;;4907858;28;48499;-63
2022/08/06 12:47:17;;;;;;;0.20;0.20;;;31.60;30.30;;;;;;4893791;28;45967;-62
2022/08/06 12:49:42;;;;;;;0.80;0.20;;;31.60;30.10;;;;;;4899058;28;45649;-62
2022/08/06 12:52:18;;;;;;;0.20;0.20;;;31.60;30.00;;;;;;4896718;28;45249;-62
2022/08/06 12:54:44;;;;;;;2.15;0.20;;;31.60;29.60;;;;;;4895750;28;45264;-62
2022/08/06 12:57:39;;;;;;;1.05;0.30;;;31.60;29.90;;;;;;4895824;28;45357;-61
2022/08/06 13:00:07;;;;;;;0.22;0.22;;;31.60;29.30;;;;;;4882680;28;45349;-63
2022/08/06 13:02:33;;;;;;;0.40;0.20;;;31.60;29.80;;;;;;4890086;28;45244;-62
2022/08/06 13:04:58;;;;;;;1.08;0.30;;;31.60;29.70;;;;;;4890589;28;45795;-62
2022/08/06 13:07:24;;;;;;;0.40;0.25;;;31.60;29.60;;;;;;4870128;29;46122;-63
2022/08/06 13:09:49;;;;;;;0.43;0.17;;;31.60;29.60;;;;;;4887562;28;45245;-62
2022/08/06 13:12:18;;;;;;;0.93;0.20;;;31.60;29.60;;;;;;4860061;28;45552;-62
2022/08/06 13:14:55;;;;;;;1.23;0.20;;;31.60;29.40;;;;;;4886602;28;45281;-62
2022/08/06 13:17:21;;;;;;;1.55;0.20;;;31.60;29.30;;;;;;4904023;28;46220;-63
2022/08/06 13:19:54;;;;;;;1.35;0.30;;;31.70;29.40;;;;;;4888106;28;45315;-63
2022/08/06 13:22:21;;;;;;;1.00;0.40;;;31.70;29.70;;;;;;4903570;28;45739;-62
2022/08/06 13:24:47;;;;;;;0.20;0.20;;;31.70;29.70;;;;;;4872205;28;45270;-62
2022/08/06 13:27:12;;;;;;;0.28;0.20;;;31.60;29.60;;;;;;4885158;28;45969;-62
2022/08/06 13:30:00;;;;;;;0.82;0.22;;;31.60;29.90;;;;;;4888026;28;45297;-62
2022/08/06 13:32:26;;;;;;;0.28;0.20;;;31.70;29.50;;;;;;4886699;28;45838;-62
2022/08/06 13:34:55;;;;;;;0.25;0.20;;;31.60;29.60;;;;;;4880588;28;45629;-62
2022/08/06 13:37:43;;;;;;;0.75;0.38;;;31.70;29.50;;;;;;4876076;28;46306;-63
2022/08/06 13:40:09;;;;;;;0.82;0.22;;;31.70;29.30;;;;;;4890651;28;45312;-62
2022/08/06 13:42:51;;;;;;;0.65;0.20;;;31.60;29.40;;;;;;4891114;28;44734;-63
2022/08/06 13:45:25;;;;;;;0.43;0.22;;;31.60;29.20;;;;;;4910695;28;44691;-63
2022/08/06 13:48:00;;;;;;;1.95;0.30;;;31.70;29.40;;;;;;4896367;28;46087;-63
2022/08/06 13:50:26;;;;;;;0.85;0.20;;;31.70;29.50;;;;;;4895463;28;45543;-62
2022/08/06 13:52:52;;;;;;;0.63;0.40;;;31.70;29.50;;;;;;4892679;28;45246;-63
2022/08/06 13:55:25;;;;;;;1.42;0.20;;;31.60;29.50;;;;;;4895930;28;45590;-63
2022/08/06 13:57:51;;;;;;;2.20;0.20;;;31.70;29.30;;;;;;4896231;28;46161;-62
2022/08/06 14:00:17;;;;;;;0.45;0.20;;;31.70;29.50;;;;;;4894469;28;44723;-64
2022/08/06 14:02:42;;;;;;;0.20;0.20;;;31.70;29.50;;;;;;4896317;28;45387;-62
2022/08/06 14:05:08;;;;;;;0.30;0.20;;;31.70;29.60;;;;;;4899700;28;45551;-62
2022/08/06 14:07:34;;;;;;;0.50;0.30;;;31.70;29.50;;;;;;4900725;28;45242;-62
2022/08/06 14:09:59;;;;;;;0.30;0.15;;;31.70;29.50;;;;;;4896669;28;45423;-62
2022/08/06 14:12:25;;;;;;;0.17;0.17;;;31.80;29.40;;;;;;4895852;28;45208;-62
2022/08/06 14:14:50;;;;;;;1.30;0.30;;;31.70;29.50;;;;;;4901362;28;46127;-63
2022/08/06 14:17:16;;;;;;;1.10;0.20;;;31.70;29.50;;;;;;4901140;28;47516;-63
2022/08/06 14:19:42;;;;;;;0.45;0.20;;;31.70;29.40;;;;;;4898772;28;45165;-62
2022/08/06 14:22:08;;;;;;;0.35;0.28;;;31.70;29.40;;;;;;4898346;28;45493;-62
2022/08/06 14:24:34;;;;;;;1.13;0.32;;;31.70;29.50;;;;;;4880964;28;45464;-62
2022/08/06 14:27:00;;;;;;;0.98;0.25;;;31.70;29.50;;;;;;4897693;28;45201;-62
2022/08/06 14:29:25;;;;;;;1.25;0.30;;;31.70;29.40;;;;;;4898481;28;45284;-63
2022/08/06 14:31:51;;;;;;;0.28;0.28;;;31.70;29.30;;;;;;4915433;28;45145;-62
2022/08/06 14:34:16;;;;;;;0.30;0.20;;;31.80;29.30;;;;;;4900177;28;45082;-62
2022/08/06 14:36:42;;;;;;;2.13;0.40;;;31.80;29.30;;;;;;4903644;28;45268;-62
2022/08/06 14:39:15;;;;;;;0.88;0.20;;;31.80;29.20;;;;;;4902783;28;44999;-62
2022/08/06 14:47:09;;;;;;;0.28;0.20;;;31.80;29.40;;;;;;4901918;28;46028;-62
2022/08/06 14:49:35;;;;;;;0.63;0.30;;;31.80;29.40;;;;;;4903338;28;45316;-63
2022/08/06 14:52:01;;;;;;;0.40;0.20;;;31.80;29.40;;;;;;4901569;28;45281;-62
2022/08/06 14:54:27;;;;;;;1.10;0.30;;;31.80;29.50;;;;;;4902884;28;45523;-62
2022/08/06 14:56:52;;;;;;;0.52;0.28;;;31.70;29.40;;;;;;4901011;28;46199;-62
2022/08/06 14:59:21;;;;;;;1.48;0.30;;;31.80;29.40;;;;;;4898603;28;45271;-63
2022/08/06 15:01:47;;;;;;;0.43;0.20;;;31.80;29.30;;;;;;4897269;28;45415;-63
2022/08/06 15:04:12;;;;;;;0.55;0.28;;;31.80;29.40;;;;;;4898661;28;45440;-63
2022/08/06 15:06:38;;;;;;;2.85;0.20;;;31.80;29.40;;;;;;4897300;28;46356;-63
2022/08/06 15:09:04;;;;;;;0.93;0.30;;;31.80;29.30;;;;;;4901681;28;45361;-63
2022/08/06 15:11:29;;;;;;;1.05;0.35;;;31.80;29.20;;;;;;4898925;28;45372;-62
2022/08/06 15:13:55;;;;;;;0.50;0.30;;;31.80;29.20;;;;;;4897500;28;44738;-62
2022/08/06 15:16:20;;;;;;;0.20;0.20;;;31.80;29.20;;;;;;4912237;28;45276;-63
2022/08/06 15:18:46;;;;;;;1.08;0.43;;;31.80;29.20;;;;;;4897355;28;45385;-62
2022/08/06 15:21:12;;;;;;;0.28;0.20;;;31.80;29.30;;;;;;4881243;28;46217;-62
2022/08/06 15:23:38;;;;;;;1.05;0.30;;;31.80;29.40;;;;;;4895458;28;44847;-62
2022/08/06 15:26:03;;;;;;;0.50;0.20;;;31.80;29.30;;;;;;4896145;28;45465;-63
2022/08/06 15:28:29;;;;;;;0.52;0.20;;;31.80;29.30;;;;;;4908904;28;45695;-62
2022/08/06 15:30:55;;;;;;;0.22;0.20;;;31.80;29.30;;;;;;4894512;28;45575;-63
2022/08/06 15:33:20;;;;;;;0.20;0.20;;;31.80;29.30;;;;;;4897208;28;45276;-63
2022/08/06 15:35:46;;;;;;;0.25;0.25;;;31.80;29.30;;;;;;4897576;28;45537;-63
2022/08/06 15:38:12;;;;;;;0.30;0.30;;;31.80;29.20;;;;;;4896701;28;45408;-63
2022/08/06 15:40:38;;;;;;;0.30;0.20;;;31.80;29.20;;;;;;4896044;28;45674;-63
2022/08/06 15:43:03;;;;;;;1.70;0.30;;;31.80;29.20;;;;;;4896093;28;45092;-63
2022/08/06 15:45:29;;;;;;;0.60;0.32;;;31.80;29.20;;;;;;4896786;28;46287;-62
2022/08/06 15:47:56;;;;;;;0.40;0.35;;;31.80;29.10;;;;;;4895929;28;45205;-62
2022/08/06 15:50:22;;;;;;;0.57;0.20;;;31.80;29.30;;;;;;4896511;28;44770;-62
2022/08/06 15:52:47;;;;;;;0.32;0.20;;;31.80;29.30;;;;;;4899665;28;44962;-62
2022/08/06 15:55:13;;;;;;;1.48;0.28;;;31.80;29.30;;;;;;4898225;28;45978;-62
2022/08/06 15:57:38;;;;;;;0.30;0.20;;;31.80;29.30;;;;;;4898423;28;45380;-63
2022/08/06 16:00:05;;;;;;;1.20;0.20;;;31.80;29.30;;;;;;4893432;28;45204;-62
2022/08/06 16:02:31;;;;;;;2.45;0.30;;;31.80;29.30;;;;;;4887231;28;45476;-62
2022/08/06 16:04:56;;;;;;;0.50;0.20;;;31.80;29.20;;;;;;4892820;28;45970;-62
2022/08/06 16:07:22;;;;;;;0.80;0.30;;;31.80;29.30;;;;;;4893514;28;45152;-63
2022/08/06 16:09:48;;;;;;;0.60;0.22;;;31.80;29.30;;;;;;4890385;28;45413;-62